Time;durP1;ratioP1;P1;durP2;ratioP2;P2;SDS_P1;SDS_P2;PMS_P1;PMS_P2;Temp;Humidity;BMP_temperature;BMP_pressure;BME280_temperature;BME280_humidity;BME280_pressure;Samples;Min_cycle;Max_cycle;Signal;HPM_P1;HPM_P2
2022/11/15 00:01:06;;;;;;;0.77;0.40;;;;;;;;;;5087344;28;20051;-64
2022/11/15 00:03:33;;;;;;;1.48;0.70;;;;;;;;;;5076504;28;20046;-64
2022/11/15 00:06:04;;;;;;;11.85;1.15;;;;;;;;;;5087363;28;20570;-62
2022/11/15 00:08:31;;;;;;;3.47;1.48;;;;;;;;;;5087117;28;20095;-63
2022/11/15 00:10:59;;;;;;;13.05;5.32;;;;;;;;;;5091395;28;20032;-64
2022/11/15 00:13:26;;;;;;;8.75;5.43;;;;;;;;;;5092285;28;20020;-63
2022/11/15 00:15:53;;;;;;;11.68;5.65;;;;;;;;;;5091968;28;20024;-62
2022/11/15 00:18:20;;;;;;;10.23;4.40;;;;;;;;;;5091320;28;20024;-63
2022/11/15 00:20:46;;;;;;;6.80;3.00;;;;;;;;;;5091992;28;20032;-63
2022/11/15 00:23:13;;;;;;;6.28;3.72;;;;;;;;;;5087039;28;20036;-63
2022/11/15 00:25:42;;;;;;;2.20;1.55;;;;;;;;;;5086474;28;20047;-63
2022/11/15 00:28:09;;;;;;;2.75;1.60;;;;;;;;;;5086436;28;20047;-63
2022/11/15 00:30:35;;;;;;;3.25;1.42;;;;;;;;;;5087005;28;20500;-63
2022/11/15 00:33:03;;;;;;;2.30;1.35;;;;;;;;;;5091151;28;20038;-63
2022/11/15 00:35:32;;;;;;;5.88;2.17;;;;;;;;;;5091896;28;20074;-62
2022/11/15 00:37:59;;;;;;;1.10;0.93;;;;;;;;;;5092331;28;20047;-65
2022/11/15 00:40:26;;;;;;;6.55;1.85;;;;;;;;;;5091791;28;20048;-69
2022/11/15 00:42:52;;;;;;;4.10;2.00;;;;;;;;;;5091604;28;20032;-68
2022/11/15 00:45:19;;;;;;;5.00;1.02;;;;;;;;;;5087033;28;20020;-67
2022/11/15 00:47:46;;;;;;;1.20;0.75;;;;;;;;;;5086859;28;20081;-65
2022/11/15 00:50:13;;;;;;;0.98;0.73;;;;;;;;;;5086770;28;20032;-61
2022/11/15 00:52:40;;;;;;;2.22;1.27;;;;;;;;;;5087015;28;20043;-62
2022/11/15 00:55:07;;;;;;;21.43;1.13;;;;;;;;;;5091238;28;20028;-62
2022/11/15 00:57:33;;;;;;;6.23;1.17;;;;;;;;;;5091573;28;20016;-62
2022/11/15 01:00:00;;;;;;;20.43;0.97;;;;;;;;;;5092246;28;20042;-60
2022/11/15 01:02:27;;;;;;;3.77;1.53;;;;;;;;;;5091857;28;20028;-61
2022/11/15 01:04:54;;;;;;;3.50;1.23;;;;;;;;;;5092070;28;20092;-61
2022/11/15 01:07:21;;;;;;;2.53;1.30;;;;;;;;;;5087370;28;20028;-61
2022/11/15 01:09:47;;;;;;;4.43;1.10;;;;;;;;;;5087033;28;20198;-62
2022/11/15 01:12:14;;;;;;;1.60;1.03;;;;;;;;;;5086639;28;20468;-61
2022/11/15 01:14:41;;;;;;;1.97;1.17;;;;;;;;;;5089231;28;20032;-61
2022/11/15 01:17:07;;;;;;;1.83;1.07;;;;;;;;;;5094142;28;20020;-61
2022/11/15 01:19:34;;;;;;;4.07;1.60;;;;;;;;;;5095582;28;20043;-61
2022/11/15 01:22:01;;;;;;;3.00;1.47;;;;;;;;;;5095773;28;20028;-61
2022/11/15 01:24:28;;;;;;;5.17;1.87;;;;;;;;;;5094604;28;20032;-61
2022/11/15 01:26:54;;;;;;;2.03;1.20;;;;;;;;;;5095161;28;20020;-61
2022/11/15 01:29:21;;;;;;;8.30;2.67;;;;;;;;;;5092295;28;20410;-61
2022/11/15 01:31:48;;;;;;;4.80;2.87;;;;;;;;;;5089487;28;20032;-61
2022/11/15 01:34:15;;;;;;;13.43;2.73;;;;;;;;;;5081310;28;20035;-61
2022/11/15 01:36:41;;;;;;;1.70;1.30;;;;;;;;;;5089965;28;20148;-62
2022/11/15 01:39:08;;;;;;;9.27;3.40;;;;;;;;;;5092264;28;20036;-62
2022/11/15 01:41:35;;;;;;;7.93;5.00;;;;;;;;;;5094457;28;20028;-61
2022/11/15 01:44:20;;;;;;;7.03;3.37;;;;;;;;;;5094569;28;20399;-60
2022/11/15 01:46:48;;;;;;;3.33;1.60;;;;;;;;;;5094539;28;20107;-62
2022/11/15 01:49:19;;;;;;;2.37;1.37;;;;;;;;;;5095250;28;20051;-60
2022/11/15 01:51:46;;;;;;;5.70;1.00;;;;;;;;;;5090160;28;20115;-61
2022/11/15 01:54:15;;;;;;;2.60;1.70;;;;;;;;;;5089152;28;20032;-61
2022/11/15 01:56:44;;;;;;;5.97;1.57;;;;;;;;;;5090148;28;20024;-61
2022/11/15 01:59:11;;;;;;;7.03;2.23;;;;;;;;;;5088403;28;20031;-62
2022/11/15 02:01:38;;;;;;;1.70;1.20;;;;;;;;;;5088522;28;20463;-61
2022/11/15 02:04:09;;;;;;;6.87;1.87;;;;;;;;;;5085484;28;20497;-61
2022/11/15 02:06:37;;;;;;;4.00;1.33;;;;;;;;;;5084011;28;20111;-61
2022/11/15 02:09:04;;;;;;;9.07;1.83;;;;;;;;;;5088364;28;20020;-60
2022/11/15 02:11:30;;;;;;;9.40;1.17;;;;;;;;;;5091548;28;20375;-61
2022/11/15 02:13:59;;;;;;;3.17;1.67;;;;;;;;;;5088913;28;20028;-61
2022/11/15 02:16:36;;;;;;;1.63;1.20;;;;;;;;;;5087795;28;20422;-60
2022/11/15 02:19:18;;;;;;;2.37;1.30;;;;;;;;;;5089617;28;20051;-60
2022/11/15 02:21:56;;;;;;;2.03;1.20;;;;;;;;;;5089571;28;20067;-60
2022/11/15 02:24:28;;;;;;;3.80;1.47;;;;;;;;;;5093187;28;20020;-61
2022/11/15 02:27:01;;;;;;;1.87;1.17;;;;;;;;;;5094513;28;20028;-60
2022/11/15 02:29:31;;;;;;;5.63;1.17;;;;;;;;;;5089181;28;20498;-60
2022/11/15 02:31:58;;;;;;;4.70;1.50;;;;;;;;;;5084467;28;20028;-60
2022/11/15 02:34:27;;;;;;;12.37;2.83;;;;;;;;;;5085231;28;20028;-60
2022/11/15 02:37:15;;;;;;;1.53;1.30;;;;;;;;;;5087041;28;20042;-60
2022/11/15 02:39:58;;;;;;;1.33;0.90;;;;;;;;;;5069035;28;20122;-61
2022/11/15 02:45:14;;;;;;;1.33;0.97;;;;;;;;;;5069821;28;20052;-60
2022/11/15 02:47:45;;;;;;;2.97;1.43;;;;;;;;;;5073807;28;20083;-60
2022/11/15 02:50:13;;;;;;;2.00;1.13;;;;;;;;;;5073765;28;20042;-60
2022/11/15 02:52:40;;;;;;;1.93;0.83;;;;;;;;;;5079899;28;20032;-61
2022/11/15 02:55:26;;;;;;;2.07;1.30;;;;;;;;;;5073711;28;20106;-60
2022/11/15 02:57:57;;;;;;;0.90;0.53;;;;;;;;;;5073454;28;20017;-61
2022/11/15 03:00:24;;;;;;;1.00;0.60;;;;;;;;;;5070762;28;20421;-60
2022/11/15 03:02:51;;;;;;;3.70;1.10;;;;;;;;;;5067945;28;20025;-60
2022/11/15 03:05:17;;;;;;;1.80;1.10;;;;;;;;;;5069297;28;20374;-60
2022/11/15 03:08:10;;;;;;;1.27;0.87;;;;;;;;;;5085052;28;20029;-61
2022/11/15 03:10:41;;;;;;;2.73;1.43;;;;;;;;;;5085876;28;20072;-60
2022/11/15 03:13:11;;;;;;;7.50;1.27;;;;;;;;;;5076891;28;20052;-61
2022/11/15 03:15:43;;;;;;;1.73;0.70;;;;;;;;;;5091641;28;20051;-61
2022/11/15 03:18:25;;;;;;;0.60;0.47;;;;;;;;;;5073967;28;20021;-61
2022/11/15 03:20:53;;;;;;;0.83;0.40;;;;;;;;;;5070506;28;20021;-60
2022/11/15 03:23:20;;;;;;;0.83;0.70;;;;;;;;;;5068126;28;20099;-60
2022/11/15 03:25:48;;;;;;;4.13;1.30;;;;;;;;;;5070728;28;20020;-61
2022/11/15 03:28:20;;;;;;;0.60;0.60;;;;;;;;;;5078799;28;20374;-60
2022/11/15 03:30:48;;;;;;;2.07;1.03;;;;;;;;;;5074636;28;20119;-61
2022/11/15 03:33:15;;;;;;;1.07;0.97;;;;;;;;;;5089712;28;20019;-60
2022/11/15 03:35:44;;;;;;;1.80;0.73;;;;;;;;;;5078040;28;20020;-60
2022/11/15 03:38:23;;;;;;;1.47;0.83;;;;;;;;;;5087680;28;20028;-60
2022/11/15 03:40:54;;;;;;;2.03;1.30;;;;;;;;;;5093278;28;20024;-60
2022/11/15 03:43:33;;;;;;;6.53;1.33;;;;;;;;;;5089197;28;20020;-60
2022/11/15 03:46:02;;;;;;;2.17;0.80;;;;;;;;;;5088073;28;20073;-60
2022/11/15 03:48:34;;;;;;;1.13;0.70;;;;;;;;;;5087902;28;20500;-61
2022/11/15 03:51:01;;;;;;;1.60;0.90;;;;;;;;;;5086027;28;20032;-60
2022/11/15 03:53:30;;;;;;;1.20;0.80;;;;;;;;;;5091214;28;20038;-60
2022/11/15 03:55:57;;;;;;;0.67;0.53;;;;;;;;;;5072516;28;20021;-60
2022/11/15 03:58:23;;;;;;;0.77;0.63;;;;;;;;;;5072742;28;20382;-60
2022/11/15 04:00:50;;;;;;;2.10;1.00;;;;;;;;;;5073546;28;20108;-60
2022/11/15 04:03:17;;;;;;;11.63;1.23;;;;;;;;;;5080216;28;20375;-60
2022/11/15 04:05:43;;;;;;;2.47;1.17;;;;;;;;;;5086220;28;20024;-59
2022/11/15 04:08:10;;;;;;;1.63;0.97;;;;;;;;;;5067304;28;20020;-60
2022/11/15 04:10:37;;;;;;;2.13;1.00;;;;;;;;;;5067227;28;20032;-60
2022/11/15 04:13:03;;;;;;;2.07;1.03;;;;;;;;;;5067484;28;20035;-60
2022/11/15 04:15:30;;;;;;;2.60;1.10;;;;;;;;;;5078049;28;20493;-60
2022/11/15 04:17:57;;;;;;;1.30;0.77;;;;;;;;;;5092649;28;20020;-60
2022/11/15 04:26:01;;;;;;;1.90;1.00;;;;;;;;;;5092856;28;20038;-60
2022/11/15 04:28:28;;;;;;;1.27;0.77;;;;;;;;;;5087144;28;20055;-60
2022/11/15 04:30:55;;;;;;;0.93;0.70;;;;;;;;;;5081423;28;20040;-59
2022/11/15 04:33:22;;;;;;;0.93;0.47;;;;;;;;;;5071284;28;20028;-61
2022/11/15 04:38:34;;;;;;;0.50;0.40;;;;;;;;;;5092139;28;20047;-60
2022/11/15 04:41:00;;;;;;;2.03;1.27;;;;;;;;;;5092481;28;20532;-59
2022/11/15 04:43:27;;;;;;;1.87;0.83;;;;;;;;;;5091917;28;20024;-60
2022/11/15 04:45:54;;;;;;;1.73;1.00;;;;;;;;;;5092134;28;20025;-59
2022/11/15 04:48:21;;;;;;;0.90;0.70;;;;;;;;;;5077613;28;20074;-60
2022/11/15 04:50:50;;;;;;;1.40;0.80;;;;;;;;;;5070657;28;20102;-61
2022/11/15 04:53:17;;;;;;;0.50;0.43;;;;;;;;;;5070963;28;20017;-59
2022/11/15 04:55:47;;;;;;;2.97;0.80;;;;;;;;;;5070984;28;20035;-60
2022/11/15 04:58:13;;;;;;;2.53;1.23;;;;;;;;;;5070456;28;20107;-60
2022/11/15 05:00:40;;;;;;;0.83;0.53;;;;;;;;;;5079765;28;20024;-59
2022/11/15 05:05:52;;;;;;;1.13;0.85;;;;;;;;;;5092375;28;20093;-58
2022/11/15 05:08:18;;;;;;;0.70;0.50;;;;;;;;;;5075629;28;20021;-59
2022/11/15 05:10:45;;;;;;;1.40;0.80;;;;;;;;;;5074882;28;20051;-59
2022/11/15 05:13:12;;;;;;;1.07;0.50;;;;;;;;;;5070604;28;20024;-59
2022/11/15 05:15:38;;;;;;;0.53;0.43;;;;;;;;;;5082995;28;20050;-59
2022/11/15 05:18:05;;;;;;;0.33;0.27;;;;;;;;;;5090568;28;20059;-59
2022/11/15 05:20:32;;;;;;;0.73;0.40;;;;;;;;;;5090502;28;20020;-59
2022/11/15 05:22:58;;;;;;;1.23;0.53;;;;;;;;;;5095354;28;20031;-59
2022/11/15 05:25:25;;;;;;;0.30;0.30;;;;;;;;;;5095774;28;20024;-59
2022/11/15 05:27:52;;;;;;;4.87;0.97;;;;;;;;;;5094990;28;20024;-59
2022/11/15 05:30:19;;;;;;;1.23;0.50;;;;;;;;;;5092456;28;20085;-59
2022/11/15 05:32:55;;;;;;;0.37;0.30;;;;;;;;;;5075240;28;20448;-59
2022/11/15 05:35:42;;;;;;;0.70;0.50;;;;;;;;;;5070262;28;20087;-59
2022/11/15 05:38:09;;;;;;;4.00;0.97;;;;;;;;;;5069498;28;20082;-58
2022/11/15 05:40:37;;;;;;;0.60;0.40;;;;;;;;;;5070071;28;20116;-59
2022/11/15 05:43:04;;;;;;;0.87;0.40;;;;;;;;;;5074572;28;20031;-60
2022/11/15 05:45:32;;;;;;;1.10;0.87;;;;;;;;;;5095211;28;20024;-60
2022/11/15 05:47:59;;;;;;;1.40;0.80;;;;;;;;;;5095154;28;20027;-60
2022/11/15 05:50:26;;;;;;;1.37;0.93;;;;;;;;;;5095208;28;20028;-59
2022/11/15 05:52:53;;;;;;;3.10;1.07;;;;;;;;;;5093018;28;20571;-60
2022/11/15 05:55:19;;;;;;;2.77;0.70;;;;;;;;;;5082263;28;20036;-60
2022/11/15 05:57:46;;;;;;;0.60;0.50;;;;;;;;;;5069612;28;20024;-60
2022/11/15 06:00:13;;;;;;;0.67;0.50;;;;;;;;;;5069171;28;20028;-59
2022/11/15 06:02:40;;;;;;;1.43;0.80;;;;;;;;;;5075835;28;20386;-60
2022/11/15 06:05:06;;;;;;;1.47;0.93;;;;;;;;;;5087818;28;20091;-59
2022/11/15 06:07:33;;;;;;;0.87;0.70;;;;;;;;;;5074744;28;20016;-59
2022/11/15 06:10:00;;;;;;;1.23;0.80;;;;;;;;;;5073916;28;20073;-59
2022/11/15 06:12:26;;;;;;;1.17;0.90;;;;;;;;;;5074582;28;20035;-59
2022/11/15 06:14:53;;;;;;;1.80;0.90;;;;;;;;;;5074343;28;20032;-59
2022/11/15 06:17:19;;;;;;;1.60;0.70;;;;;;;;;;5085965;28;20419;-59
2022/11/15 06:19:46;;;;;;;0.63;0.60;;;;;;;;;;5089422;28;20478;-59
2022/11/15 06:22:13;;;;;;;1.17;0.70;;;;;;;;;;5089119;28;20051;-59
2022/11/15 06:24:40;;;;;;;1.27;0.90;;;;;;;;;;5089291;28;20028;-59
2022/11/15 06:27:06;;;;;;;3.47;2.07;;;;;;;;;;5088671;28;20016;-59
2022/11/15 06:29:33;;;;;;;4.53;1.90;;;;;;;;;;5093340;28;20027;-59
2022/11/15 06:31:59;;;;;;;2.47;1.40;;;;;;;;;;5094087;28;20032;-59
2022/11/15 06:34:26;;;;;;;1.37;0.80;;;;;;;;;;5074343;28;20074;-59
2022/11/15 06:36:53;;;;;;;5.73;1.60;;;;;;;;;;5073908;28;20047;-58
2022/11/15 06:39:20;;;;;;;1.53;1.07;;;;;;;;;;5073810;28;20055;-59
2022/11/15 06:41:46;;;;;;;2.40;1.40;;;;;;;;;;5069330;28;20028;-59
2022/11/15 06:44:13;;;;;;;3.00;1.63;;;;;;;;;;5068083;28;20301;-59
2022/11/15 06:46:40;;;;;;;2.40;1.47;;;;;;;;;;5068615;28;21046;-59
2022/11/15 06:49:06;;;;;;;2.57;1.23;;;;;;;;;;5076990;28;20020;-59
2022/11/15 06:51:33;;;;;;;1.77;1.20;;;;;;;;;;5092167;28;20117;-59
2022/11/15 06:54:00;;;;;;;1.77;1.03;;;;;;;;;;5093866;28;20097;-59
2022/11/15 06:56:26;;;;;;;1.03;0.77;;;;;;;;;;5093748;28;20020;-59
2022/11/15 06:58:53;;;;;;;4.77;1.53;;;;;;;;;;5093719;28;20035;-58
2022/11/15 07:01:20;;;;;;;2.10;1.20;;;;;;;;;;5092985;28;20099;-58
2022/11/15 07:03:46;;;;;;;4.07;1.77;;;;;;;;;;5089837;28;20058;-58
2022/11/15 07:06:13;;;;;;;3.50;1.30;;;;;;;;;;5070883;28;20467;-59
2022/11/15 07:08:41;;;;;;;0.80;0.70;;;;;;;;;;5068140;28;20028;-59
2022/11/15 07:11:09;;;;;;;4.17;1.23;;;;;;;;;;5067152;28;20081;-59
2022/11/15 07:13:37;;;;;;;2.50;1.33;;;;;;;;;;5070931;28;20029;-59
2022/11/15 07:16:04;;;;;;;1.70;1.10;;;;;;;;;;5073184;28;20027;-59
2022/11/15 07:18:31;;;;;;;0.87;0.70;;;;;;;;;;5072770;28;20056;-58
2022/11/15 07:21:01;;;;;;;3.73;1.53;;;;;;;;;;5078484;28;20027;-59
2022/11/15 07:23:28;;;;;;;1.57;1.00;;;;;;;;;;5093122;28;20027;-58
2022/11/15 07:25:57;;;;;;;0.50;0.40;;;;;;;;;;5089664;28;20031;-58
2022/11/15 07:28:23;;;;;;;0.90;0.80;;;;;;;;;;5087989;28;20062;-59
2022/11/15 07:30:50;;;;;;;1.30;0.73;;;;;;;;;;5088016;28;20016;-59
2022/11/15 07:33:17;;;;;;;0.93;0.70;;;;;;;;;;5087535;28;20024;-58
2022/11/15 07:35:46;;;;;;;2.27;1.37;;;;;;;;;;5090466;28;20031;-59
2022/11/15 07:38:14;;;;;;;1.80;1.10;;;;;;;;;;5089465;28;20067;-59
2022/11/15 07:40:41;;;;;;;9.50;1.70;;;;;;;;;;5092519;28;20102;-59
2022/11/15 07:43:09;;;;;;;0.53;0.53;;;;;;;;;;5092955;28;20024;-59
2022/11/15 07:45:41;;;;;;;2.40;0.87;;;;;;;;;;5092689;28;20107;-59
2022/11/15 07:48:07;;;;;;;0.77;0.60;;;;;;;;;;5089297;28;20038;-59
2022/11/15 07:50:34;;;;;;;0.77;0.50;;;;;;;;;;5086838;28;20028;-58
2022/11/15 07:53:01;;;;;;;0.57;0.50;;;;;;;;;;5067033;28;20036;-59
2022/11/15 07:55:29;;;;;;;1.63;0.40;;;;;;;;;;5067406;28;20367;-59
2022/11/15 07:58:03;;;;;;;0.17;0.17;;;;;;;;;;5069837;28;20039;-60
2022/11/15 08:00:30;;;;;;;1.57;1.00;;;;;;;;;;5072344;28;20025;-59
2022/11/15 08:03:04;;;;;;;0.97;0.67;;;;;;;;;;5072430;28;20024;-58
2022/11/15 08:05:31;;;;;;;0.70;0.70;;;;;;;;;;5072575;28;20020;-59
2022/11/15 08:07:58;;;;;;;0.97;0.70;;;;;;;;;;5082693;28;20035;-59
2022/11/15 08:10:25;;;;;;;0.67;0.53;;;;;;;;;;5071108;28;20383;-59
2022/11/15 08:13:02;;;;;;;1.30;0.73;;;;;;;;;;5067171;28;20040;-58
2022/11/15 08:15:29;;;;;;;0.73;0.60;;;;;;;;;;5068052;28;20033;-58
2022/11/15 08:17:57;;;;;;;2.33;0.73;;;;;;;;;;5066788;28;20029;-58
2022/11/15 08:20:24;;;;;;;0.57;0.37;;;;;;;;;;5069972;28;20036;-59
2022/11/15 08:22:50;;;;;;;3.50;1.13;;;;;;;;;;5072023;28;20017;-59
2022/11/15 08:25:17;;;;;;;0.83;0.53;;;;;;;;;;5074286;28;20028;-58
2022/11/15 08:27:44;;;;;;;1.27;0.70;;;;;;;;;;5092219;28;20020;-60
2022/11/15 08:30:11;;;;;;;0.20;0.20;;;;;;;;;;5092423;28;20382;-59
2022/11/15 08:32:38;;;;;;;2.63;1.23;;;;;;;;;;5088763;28;20028;-60
2022/11/15 08:35:05;;;;;;;0.47;0.33;;;;;;;;;;5086757;28;20383;-58
2022/11/15 08:37:31;;;;;;;1.67;0.50;;;;;;;;;;5086987;28;20024;-58
2022/11/15 08:39:58;;;;;;;0.33;0.30;;;;;;;;;;5078935;28;20037;-58
2022/11/15 08:42:25;;;;;;;0.30;0.30;;;;;;;;;;5069389;28;20021;-58
2022/11/15 08:44:51;;;;;;;1.63;0.90;;;;;;;;;;5071814;28;20139;-59
2022/11/15 08:47:18;;;;;;;0.50;0.40;;;;;;;;;;5072075;28;20029;-59
2022/11/15 08:49:44;;;;;;;7.47;0.53;;;;;;;;;;5071979;28;20031;-59
2022/11/15 08:52:11;;;;;;;0.87;0.43;;;;;;;;;;5071606;28;20035;-58
2022/11/15 08:54:38;;;;;;;0.73;0.50;;;;;;;;;;5069376;28;20110;-59
2022/11/15 08:57:04;;;;;;;1.23;0.73;;;;;;;;;;5082334;28;20533;-58
2022/11/15 08:59:31;;;;;;;0.33;0.33;;;;;;;;;;5086832;28;20032;-59
2022/11/15 09:01:58;;;;;;;0.93;0.60;;;;;;;;;;5086764;28;20030;-59
2022/11/15 09:04:24;;;;;;;0.50;0.30;;;;;;;;;;5069684;28;20038;-58
2022/11/15 09:06:51;;;;;;;1.03;0.73;;;;;;;;;;5071856;28;20024;-58
2022/11/15 09:09:18;;;;;;;0.60;0.43;;;;;;;;;;5071253;28;20027;-58
2022/11/15 09:11:44;;;;;;;1.13;0.70;;;;;;;;;;5072592;28;20451;-58
2022/11/15 09:14:12;;;;;;;1.00;0.50;;;;;;;;;;5071847;28;20502;-58
2022/11/15 09:16:38;;;;;;;0.47;0.40;;;;;;;;;;5071161;28;20032;-59
2022/11/15 09:19:05;;;;;;;1.13;1.03;;;;;;;;;;5070126;28;20032;-58
2022/11/15 09:21:32;;;;;;;0.63;0.40;;;;;;;;;;5066753;28;20064;-58
2022/11/15 09:23:59;;;;;;;0.87;0.70;;;;;;;;;;5066407;28;20024;-58
2022/11/15 09:26:25;;;;;;;1.37;0.83;;;;;;;;;;5067509;28;20036;-58
2022/11/15 09:28:52;;;;;;;0.97;0.63;;;;;;;;;;5071804;28;20023;-58
2022/11/15 09:31:19;;;;;;;2.23;0.70;;;;;;;;;;5071202;28;20097;-60
2022/11/15 09:33:46;;;;;;;0.73;0.60;;;;;;;;;;5089690;28;20687;-58
2022/11/15 09:36:13;;;;;;;1.43;0.93;;;;;;;;;;5094354;28;20059;-58
2022/11/15 09:38:40;;;;;;;3.40;1.90;;;;;;;;;;5093617;28;20028;-59
2022/11/15 09:41:20;;;;;;;0.93;0.60;;;;;;;;;;5089826;28;20032;-58
2022/11/15 09:43:59;;;;;;;1.07;0.80;;;;;;;;;;5089899;28;20020;-58
2022/11/15 09:46:43;;;;;;;1.03;0.73;;;;;;;;;;5090047;28;20067;-58
2022/11/15 09:49:12;;;;;;;1.17;0.73;;;;;;;;;;5077907;28;20021;-58
2022/11/15 09:51:46;;;;;;;1.17;0.60;;;;;;;;;;5074274;28;20036;-58
2022/11/15 09:54:32;;;;;;;0.50;0.50;;;;;;;;;;5074860;28;20027;-59
2022/11/15 09:57:18;;;;;;;2.20;1.05;;;;;;;;;;5074751;28;20474;-58
2022/11/15 09:59:45;;;;;;;1.10;0.80;;;;;;;;;;5074566;28;20463;-58
2022/11/15 10:02:28;;;;;;;0.63;0.50;;;;;;;;;;5070043;28;20082;-58
2022/11/15 10:04:55;;;;;;;1.23;0.87;;;;;;;;;;5078530;28;20081;-58
2022/11/15 10:07:32;;;;;;;0.40;0.37;;;;;;;;;;5089632;28;20020;-59
2022/11/15 10:10:17;;;;;;;1.23;0.87;;;;;;;;;;5089323;28;20035;-58
2022/11/15 10:12:46;;;;;;;4.15;1.67;;;;;;;;;;5094606;28;20043;-59
2022/11/15 10:15:15;;;;;;;0.60;0.50;;;;;;;;;;5094543;28;20106;-58
2022/11/15 10:17:41;;;;;;;0.87;0.73;;;;;;;;;;5094643;28;20032;-58
2022/11/15 10:20:08;;;;;;;0.67;0.60;;;;;;;;;;5091608;28;20027;-58
2022/11/15 10:22:41;;;;;;;0.90;0.70;;;;;;;;;;5073655;28;20016;-58
2022/11/15 10:25:13;;;;;;;1.60;0.77;;;;;;;;;;5069092;28;20024;-58
2022/11/15 10:27:42;;;;;;;0.87;0.60;;;;;;;;;;5068892;28;20528;-58
2022/11/15 10:30:12;;;;;;;2.67;1.37;;;;;;;;;;5068947;28;20025;-59
2022/11/15 10:32:40;;;;;;;1.70;1.00;;;;;;;;;;5068692;28;20119;-58
2022/11/15 10:35:18;;;;;;;0.90;0.53;;;;;;;;;;5073990;28;20023;-58
2022/11/15 10:37:45;;;;;;;1.50;1.07;;;;;;;;;;5088141;28;20474;-58
2022/11/15 10:40:22;;;;;;;2.03;0.57;;;;;;;;;;5093937;28;20070;-58
2022/11/15 10:42:50;;;;;;;1.87;1.30;;;;;;;;;;5094117;28;20058;-58
2022/11/15 10:45:31;;;;;;;3.17;1.23;;;;;;;;;;5091937;28;20479;-58
2022/11/15 10:48:12;;;;;;;1.90;1.03;;;;;;;;;;5088880;28;20060;-58
2022/11/15 10:50:40;;;;;;;0.83;0.67;;;;;;;;;;5088748;28;20021;-58
2022/11/15 10:53:21;;;;;;;0.53;0.43;;;;;;;;;;5077373;28;20352;-58
2022/11/15 10:55:49;;;;;;;0.80;0.70;;;;;;;;;;5070463;28;20020;-58
2022/11/15 10:58:21;;;;;;;0.60;0.60;;;;;;;;;;5073453;28;20016;-58
2022/11/15 11:00:48;;;;;;;0.60;0.47;;;;;;;;;;5073545;28;20037;-58
2022/11/15 11:03:28;;;;;;;0.50;0.40;;;;;;;;;;5073320;28;20098;-58
2022/11/15 11:06:11;;;;;;;0.20;0.20;;;;;;;;;;5073668;28;20020;-58
2022/11/15 11:08:37;;;;;;;6.53;1.20;;;;;;;;;;5075118;28;20024;-58
2022/11/15 11:11:05;;;;;;;1.23;0.90;;;;;;;;;;5074086;28;20036;-58
2022/11/15 11:13:33;;;;;;;0.97;0.63;;;;;;;;;;5068067;28;20024;-58
2022/11/15 11:16:02;;;;;;;0.73;0.67;;;;;;;;;;5067640;28;20027;-58
2022/11/15 11:18:41;;;;;;;1.07;0.80;;;;;;;;;;5070884;28;20095;-58
2022/11/15 11:21:12;;;;;;;1.17;0.67;;;;;;;;;;5073145;28;20077;-58
2022/11/15 11:23:38;;;;;;;0.87;0.70;;;;;;;;;;5073448;28;20024;-58
2022/11/15 11:26:14;;;;;;;1.00;0.87;;;;;;;;;;5093085;28;20020;-58
2022/11/15 11:28:46;;;;;;;1.13;0.90;;;;;;;;;;5093226;28;20028;-58
2022/11/15 11:31:25;;;;;;;0.40;0.40;;;;;;;;;;5088575;28;20498;-58
2022/11/15 11:34:10;;;;;;;0.97;0.87;;;;;;;;;;5088038;28;20325;-58
2022/11/15 11:36:37;;;;;;;0.82;0.65;;;;;;;;;;5087967;28;20385;-58
2022/11/15 11:39:15;;;;;;;0.47;0.47;;;;;;;;;;5088116;28;20465;-60
2022/11/15 11:41:42;;;;;;;0.93;0.57;;;;;;;;;;5073211;28;20102;-59
2022/11/15 11:44:19;;;;;;;0.50;0.50;;;;;;;;;;5072787;28;20505;-59
2022/11/15 11:46:50;;;;;;;1.27;0.93;;;;;;;;;;5072262;28;20021;-58
2022/11/15 11:49:20;;;;;;;0.87;0.70;;;;;;;;;;5072490;28;20025;-58
2022/11/15 11:51:52;;;;;;;0.43;0.40;;;;;;;;;;5071757;28;20308;-58
2022/11/15 11:54:39;;;;;;;0.87;0.80;;;;;;;;;;5067327;28;20311;-58
2022/11/15 11:57:08;;;;;;;0.33;0.33;;;;;;;;;;5078967;28;20272;-58
2022/11/15 11:59:38;;;;;;;0.50;0.40;;;;;;;;;;5087483;28;20581;-57
2022/11/15 12:02:30;;;;;;;5.73;0.70;;;;;;;;;;5083581;28;20264;-57
2022/11/15 12:05:16;;;;;;;3.00;0.57;;;;;;;;;;5068156;28;20040;-58
2022/11/15 12:07:43;;;;;;;0.80;0.65;;;;;;;;;;5072175;28;20245;-58
2022/11/15 12:10:20;;;;;;;0.60;0.60;;;;;;;;;;5072330;28;20101;-58
2022/11/15 12:12:51;;;;;;;0.77;0.63;;;;;;;;;;5072360;28;20037;-58
2022/11/15 12:15:21;;;;;;;1.07;0.77;;;;;;;;;;5068670;28;20556;-58
2022/11/15 12:17:48;;;;;;;2.83;1.03;;;;;;;;;;5073894;28;20270;-58
2022/11/15 12:20:19;;;;;;;1.10;1.00;;;;;;;;;;5066997;28;20269;-58
2022/11/15 12:22:48;;;;;;;1.07;0.73;;;;;;;;;;5067017;28;20267;-57
2022/11/15 12:25:20;;;;;;;0.77;0.70;;;;;;;;;;5070068;28;20336;-58
2022/11/15 12:27:52;;;;;;;1.10;0.87;;;;;;;;;;5071986;28;20814;-57
2022/11/15 12:30:20;;;;;;;0.37;0.33;;;;;;;;;;5071821;28;20261;-57
2022/11/15 12:33:05;;;;;;;0.97;0.60;;;;;;;;;;5089377;28;20377;-58
2022/11/15 12:35:42;;;;;;;0.10;0.10;;;;;;;;;;5092318;28;20263;-58
2022/11/15 12:38:34;;;;;;;2.23;0.80;;;;;;;;;;5087289;28;20253;-58
2022/11/15 12:41:15;;;;;;;0.67;0.60;;;;;;;;;;5086750;28;20264;-58
2022/11/15 12:43:43;;;;;;;0.27;0.27;;;;;;;;;;5086917;28;20265;-58
2022/11/15 12:46:14;;;;;;;0.77;0.63;;;;;;;;;;5086205;28;20309;-57
2022/11/15 12:48:41;;;;;;;0.87;0.77;;;;;;;;;;5091978;28;20265;-58
2022/11/15 12:51:07;;;;;;;0.70;0.47;;;;;;;;;;5092062;28;20348;-57
2022/11/15 12:53:35;;;;;;;1.23;0.97;;;;;;;;;;5092273;28;20260;-58
2022/11/15 12:56:16;;;;;;;0.20;0.20;;;;;;;;;;5092225;28;20619;-57
2022/11/15 12:58:51;;;;;;;0.87;0.50;;;;;;;;;;5083119;28;20352;-57
2022/11/15 13:04:14;;;;;;;0.77;0.67;;;;;;;;;;5066651;28;20094;-57
2022/11/15 13:06:41;;;;;;;4.50;1.07;;;;;;;;;;5066177;28;20254;-57
2022/11/15 13:09:28;;;;;;;0.30;0.30;;;;;;;;;;5068401;28;20336;-58
2022/11/15 13:11:55;;;;;;;6.30;1.33;;;;;;;;;;5058318;28;20702;-58
2022/11/15 13:14:41;;;;;;;4.47;1.10;;;;;;;;;;5075433;28;20261;-58
2022/11/15 13:17:16;;;;;;;1.20;1.00;;;;;;;;;;5075390;28;20607;-57
2022/11/15 13:19:43;;;;;;;2.73;1.53;;;;;;;;;;5075347;28;20253;-57
2022/11/15 13:24:56;;;;;;;8.23;1.33;;;;;;;;;;5070073;28;20260;-57
2022/11/15 13:27:23;;;;;;;1.00;0.90;;;;;;;;;;5081814;28;20269;-58
2022/11/15 13:29:49;;;;;;;8.90;2.40;;;;;;;;;;5090282;28;20252;-58
2022/11/15 13:32:17;;;;;;;0.80;0.60;;;;;;;;;;5093798;28;20305;-58
2022/11/15 13:34:47;;;;;;;1.30;1.07;;;;;;;;;;5095424;28;20253;-58
2022/11/15 13:37:23;;;;;;;3.83;1.30;;;;;;;;;;5095475;28;20059;-58
2022/11/15 13:39:50;;;;;;;2.73;1.60;;;;;;;;;;5095366;28;20028;-58
2022/11/15 13:42:21;;;;;;;6.20;1.97;;;;;;;;;;5075683;28;20041;-58
2022/11/15 13:45:05;;;;;;;5.33;1.67;;;;;;;;;;5070163;28;20039;-59
2022/11/15 13:47:32;;;;;;;5.32;2.05;;;;;;;;;;5069938;28;20025;-58
2022/11/15 13:50:00;;;;;;;46.47;2.70;;;;;;;;;;5069500;28;20028;-58
2022/11/15 13:52:34;;;;;;;15.50;2.70;;;;;;;;;;5069327;28;20055;-58
2022/11/15 13:55:13;;;;;;;9.00;1.97;;;;;;;;;;5082600;28;20039;-58
2022/11/15 13:57:44;;;;;;;9.03;1.70;;;;;;;;;;5094903;28;20078;-58
2022/11/15 14:00:26;;;;;;;7.07;1.47;;;;;;;;;;5094581;28;20093;-58
2022/11/15 14:02:53;;;;;;;2.07;0.93;;;;;;;;;;5094801;28;20031;-59
2022/11/15 14:05:22;;;;;;;7.67;1.30;;;;;;;;;;5093753;28;20054;-58
2022/11/15 14:07:55;;;;;;;2.07;0.87;;;;;;;;;;5089435;28;20374;-60
2022/11/15 14:10:42;;;;;;;11.33;0.70;;;;;;;;;;5070016;28;20425;-59
2022/11/15 14:13:27;;;;;;;0.53;0.37;;;;;;;;;;5069201;28;20048;-59
2022/11/15 14:15:54;;;;;;;3.13;1.00;;;;;;;;;;5071317;28;20024;-59
2022/11/15 14:18:38;;;;;;;17.27;1.17;;;;;;;;;;5074193;28;20016;-59
2022/11/15 14:21:09;;;;;;;4.15;1.50;;;;;;;;;;5074097;28;20031;-59
2022/11/15 14:23:35;;;;;;;1.30;0.60;;;;;;;;;;5086307;28;20026;-59
2022/11/15 14:26:02;;;;;;;0.80;0.50;;;;;;;;;;5094461;28;20016;-59
2022/11/15 14:28:32;;;;;;;1.10;0.60;;;;;;;;;;5089158;28;20032;-59
2022/11/15 14:31:00;;;;;;;0.67;0.43;;;;;;;;;;5088562;28;20537;-59
2022/11/15 14:33:40;;;;;;;6.20;1.20;;;;;;;;;;5087047;28;20031;-59
2022/11/15 14:36:12;;;;;;;1.23;0.57;;;;;;;;;;5088932;28;20421;-59
2022/11/15 14:38:39;;;;;;;8.03;0.77;;;;;;;;;;5092013;28;20379;-58
2022/11/15 14:41:06;;;;;;;1.60;0.93;;;;;;;;;;5085857;28;20093;-58
2022/11/15 14:43:32;;;;;;;0.60;0.60;;;;;;;;;;5087193;28;20103;-58
2022/11/15 14:46:00;;;;;;;1.37;0.80;;;;;;;;;;5074923;28;20124;-58
2022/11/15 14:48:26;;;;;;;2.07;1.17;;;;;;;;;;5077484;28;20039;-58
2022/11/15 14:50:53;;;;;;;2.87;1.30;;;;;;;;;;5090634;28;20039;-58
2022/11/15 14:53:20;;;;;;;2.23;0.93;;;;;;;;;;5088714;28;20375;-59
2022/11/15 14:55:47;;;;;;;4.03;1.20;;;;;;;;;;5088591;28;20161;-60
2022/11/15 14:58:13;;;;;;;1.60;0.87;;;;;;;;;;5075652;28;20036;-60
2022/11/15 15:00:41;;;;;;;0.80;0.70;;;;;;;;;;5070790;28;20077;-60
2022/11/15 15:03:08;;;;;;;1.13;0.80;;;;;;;;;;5073449;28;20564;-60
2022/11/15 15:05:37;;;;;;;1.87;0.93;;;;;;;;;;5073404;28;20020;-60
2022/11/15 15:08:04;;;;;;;1.90;1.20;;;;;;;;;;5073305;28;20020;-60
2022/11/15 15:10:33;;;;;;;2.13;1.40;;;;;;;;;;5073330;28;20418;-59
2022/11/15 15:13:00;;;;;;;4.63;1.67;;;;;;;;;;5086123;28;20036;-59
2022/11/15 15:15:27;;;;;;;2.00;1.33;;;;;;;;;;5069765;28;20072;-59
2022/11/15 15:17:54;;;;;;;3.33;1.60;;;;;;;;;;5067751;28;20036;-60